Luminous Kobe-2 — JJ3868 — position and weather

sailwx.info

Track history (hours):
 
Tides and Currents Weather Stations Pressure Air Temp Water Temp Dewpoint Dewpoint Depression Visibility Wind Speed Wind Dir Waves Ship Positions

Luminous Kobe-2

Last reported at 2016-Jun-29 04:33 UTC. Time now 2016-Jun-29 05:38 UTC.
Position N 34°38' E 135°11'.

Length 105 m; draft 4.5 m.

Type: Passenger vessel. MMSI: 431000469.

Date/timePositionNaut miles runAvg speedWind from/ knotsBaromVisibWave heightAir tempDewpointWater temp
2016-Jun-29 04:33N 34°38' E 135°11'2 2.1
2016-Jun-29 03:33N 34°38' E 135°13'4 3.3
2016-Jun-29 02:28N 34°41' E 135°11'0 0.0
2016-Jun-29 01:22N 34°41' E 135°11'0 0.0
2016-Jun-29 00:22N 34°41' E 135°11'0 0.0
2016-Jun-28 23:22N 34°41' E 135°11'0 0.0
2016-Jun-28 22:28N 34°41' E 135°11'0 0.0
2016-Jun-28 21:28N 34°41' E 135°11'0 0.0
2016-Jun-28 20:28N 34°41' E 135°11'0 0.0
2016-Jun-28 19:28N 34°41' E 135°11'0 0.0
2016-Jun-28 18:28N 34°41' E 135°11'0 0.0
2016-Jun-28 17:28N 34°41' E 135°11'0 0.0
2016-Jun-28 16:28N 34°41' E 135°11'0 0.0
2016-Jun-28 15:28N 34°41' E 135°11'0 0.0
2016-Jun-28 14:28N 34°41' E 135°11'0 0.0
2016-Jun-28 13:28N 34°41' E 135°11'0 0.0
2016-Jun-28 12:28N 34°41' E 135°11'6 7.0
2016-Jun-28 11:33N 34°36' E 135°07'1 0.9
2016-Jun-28 10:34N 34°37' E 135°07'6 5.7
2016-Jun-28 09:33N 34°41' E 135°11'5 4.7
2016-Jun-28 08:33N 34°37' E 135°08'5 4.3
2016-Jun-28 07:28N 34°41' E 135°11'0 0.0
2016-Jun-28 06:28N 34°41' E 135°11'3 1.4
2016-Jun-28 04:33N 34°38' E 135°11'2 2.1
2016-Jun-28 03:33N 34°38' E 135°13'4 3.3
2016-Jun-28 02:29N 34°41' E 135°11'0 0.0
2016-Jun-28 01:29N 34°41' E 135°11'0 0.0
2016-Jun-28 00:23N 34°41' E 135°11'0 0.0
2016-Jun-27 23:23N 34°41' E 135°11'0 0.0
2016-Jun-27 22:29N 34°41' E 135°11'0 0.0
2016-Jun-27 21:23N 34°41' E 135°11'0 0.0
2016-Jun-27 20:29N 34°41' E 135°11'0 0.0
2016-Jun-27 19:29N 34°41' E 135°11'0 0.0
2016-Jun-27 18:29N 34°41' E 135°11'0 0.0
2016-Jun-27 17:29N 34°41' E 135°11'0 0.0
2016-Jun-27 16:29N 34°41' E 135°11'0 0.0
2016-Jun-27 15:23N 34°41' E 135°11'0 0.0
2016-Jun-27 14:29N 34°41' E 135°11'0 0.0
2016-Jun-27 13:29N 34°41' E 135°11'0 0.0
2016-Jun-27 12:29N 34°41' E 135°11'7 7.3
2016-Jun-27 11:33N 34°35' E 135°07'1 1.4
2016-Jun-27 10:33N 34°37' E 135°07'5 5.1
2016-Jun-27 09:29N 34°41' E 135°11'5 5.1
2016-Jun-27 08:33N 34°37' E 135°08'5 4.0
2016-Jun-27 07:23N 34°41' E 135°11'0 0.0
2016-Jun-27 06:29N 34°41' E 135°11'2 1.1
2016-Jun-27 04:33N 34°39' E 135°11'2 1.8
2016-Jun-27 03:33N 34°38' E 135°13'4 3.5
2016-Jun-27 02:33N 34°41' E 135°11'0 0.0
2016-Jun-27 01:33N 34°41' E 135°11'0 0.0
2016-Jun-27 00:33N 34°41' E 135°11'0 0.0
2016-Jun-26 23:33N 34°41' E 135°11'0 0.0
2016-Jun-26 22:33N 34°41' E 135°11'0 0.0
2016-Jun-26 21:33N 34°41' E 135°11'0 0.0
2016-Jun-26 20:21N 34°41' E 135°11'0 0.0
2016-Jun-26 19:33N 34°41' E 135°11'0 0.0
2016-Jun-26 18:27N 34°41' E 135°11'0 0.0
2016-Jun-26 17:33N 34°41' E 135°11'0 0.0
2016-Jun-26 16:33N 34°41' E 135°11'0 0.0
2016-Jun-26 15:33N 34°41' E 135°11'0 0.0
2016-Jun-26 14:33N 34°41' E 135°11'0 0.0
2016-Jun-26 13:33N 34°41' E 135°11'0 0.0
2016-Jun-26 12:33N 34°41' E 135°11'6 6.2
2016-Jun-26 11:33N 34°36' E 135°07'1 0.9
2016-Jun-26 10:33N 34°36' E 135°06'6 6.0
2016-Jun-26 09:31N 34°41' E 135°11'2 1.8
2016-Jun-26 08:33N 34°39' E 135°11'2 2.2
2016-Jun-26 07:33N 34°37' E 135°13'4 3.1
2016-Jun-26 06:22N 34°41' E 135°11'0 0.0
2016-Jun-26 05:28N 34°41' E 135°11'2 2.5
2016-Jun-26 04:33N 34°39' E 135°11'2 1.8
2016-Jun-26 03:33N 34°37' E 135°13'4 3.5
2016-Jun-26 02:31N 34°41' E 135°11'0 0.0
2016-Jun-26 01:31N 34°41' E 135°11'0 0.0
2016-Jun-26 00:31N 34°41' E 135°11'0 0.0
2016-Jun-25 23:31N 34°41' E 135°11'0 0.0
2016-Jun-25 22:31N 34°41' E 135°11'0 0.0
2016-Jun-25 21:25N 34°41' E 135°11'0 0.0
2016-Jun-25 20:31N 34°41' E 135°11'0 0.0
2016-Jun-25 19:31N 34°41' E 135°11'0 0.0
2016-Jun-25 18:31N 34°41' E 135°11'0 0.0
2016-Jun-25 17:31N 34°41' E 135°11'0 0.0
2016-Jun-25 16:31N 34°41' E 135°11'0 0.0
2016-Jun-25 15:31N 34°41' E 135°11'0 0.0
2016-Jun-25 14:31N 34°41' E 135°11'0 0.0
2016-Jun-25 13:31N 34°41' E 135°11'0 0.0
2016-Jun-25 12:31N 34°41' E 135°11'7 7.4
2016-Jun-25 11:33N 34°35' E 135°06'2 2.0
2016-Jun-25 10:33N 34°37' E 135°07'5 4.3
2016-Jun-25 09:21N 34°41' E 135°11'7 8.6
2016-Jun-25 08:33N 34°35' E 135°07'1 1.4
2016-Jun-25 07:33N 34°37' E 135°07'6 5.6
2016-Jun-25 06:33N 34°41' E 135°11'0 0.0
2016-Jun-25 05:33N 34°41' E 135°11'2 2.2
2016-Jun-25 04:33N 34°39' E 135°11'2 2.0
2016-Jun-25 03:33N 34°37' E 135°13'4 3.6
2016-Jun-25 02:31N 34°41' E 135°11'0 0.0
2016-Jun-25 01:31N 34°41' E 135°11'0 0.0
2016-Jun-25 00:31N 34°41' E 135°11'0 0.0
2016-Jun-24 23:31N 34°41' E 135°11'0 0.0
2016-Jun-24 22:31N 34°41' E 135°11'0 0.0
2016-Jun-24 21:25N 34°41' E 135°11'0 0.0
2016-Jun-24 20:31N 34°41' E 135°11'0 0.0
2016-Jun-24 19:31N 34°41' E 135°11'0 0.0
2016-Jun-24 18:31N 34°41' E 135°11'0 0.0
2016-Jun-24 17:31N 34°41' E 135°11'0 0.0
2016-Jun-24 16:31N 34°41' E 135°11'0 0.0
2016-Jun-24 15:31N 34°41' E 135°11'0 0.0
2016-Jun-24 14:31N 34°41' E 135°11'0 0.0
2016-Jun-24 13:31N 34°41' E 135°11'0 0.0
2016-Jun-24 12:33N 34°41' E 135°11'9 8.6
2016-Jun-24 11:33N 34°35' E 135°03'6 6.2
2016-Jun-24 10:33N 34°38' E 135°10'3 2.8
2016-Jun-24 09:31N 34°41' E 135°11'5 4.8
2016-Jun-24 08:34N 34°37' E 135°08'5 3.6
2016-Jun-24 07:18N 34°41' E 135°11'2 0.6
2016-Jun-24 04:33N 34°39' E 135°11'2 2.2
2016-Jun-24 03:33N 34°37' E 135°13'4 3.0
2016-Jun-24 02:20N 34°41' E 135°11'0 0.0
2016-Jun-24 01:32N 34°41' E 135°11'0 0.0
2016-Jun-24 00:32N 34°41' E 135°11'0 0.0
2016-Jun-23 23:32N 34°41' E 135°11'0 0.0
2016-Jun-23 22:26N 34°41' E 135°11'0 0.0
2016-Jun-23 21:32N 34°41' E 135°11'0 0.0
2016-Jun-23 20:26N 34°41' E 135°11'0 0.0
2016-Jun-23 19:32N 34°41' E 135°11'0 0.0
2016-Jun-23 18:32N 34°41' E 135°11'0 0.0
2016-Jun-23 17:26N 34°41' E 135°11'0 0.0
2016-Jun-23 16:32N 34°41' E 135°11'0 0.0
2016-Jun-23 15:32N 34°41' E 135°11'0 0.0
2016-Jun-23 14:26N 34°41' E 135°11'0 0.0
2016-Jun-23 13:32N 34°41' E 135°11'0 0.0
2016-Jun-23 12:28N 34°41' E 135°11'7 7.6
2016-Jun-23 11:33N 34°35' E 135°06'2 1.5
2016-Jun-23 10:34N 34°37' E 135°06'6 5.3
2016-Jun-23 09:26N 34°41' E 135°11'5 5.2
2016-Jun-23 08:33N 34°37' E 135°08'5 4.4
2016-Jun-23 07:31N 34°41' E 135°11'0 0.0
2016-Jun-23 05:31N 34°41' E 135°11'2 2.6
2016-Jun-23 04:33N 34°38' E 135°11'2 2.1
2016-Jun-23 03:33N 34°37' E 135°13'4 3.5
2016-Jun-23 02:29N 34°41' E 135°11'0 0.0
2016-Jun-23 01:29N 34°41' E 135°11'0 0.0
2016-Jun-23 00:23N 34°41' E 135°11'0 0.0
2016-Jun-22 23:29N 34°41' E 135°11'0 0.0
2016-Jun-22 22:17N 34°41' E 135°11'0 0.0
2016-Jun-22 21:29N 34°41' E 135°11'0 0.0
2016-Jun-22 20:29N 34°41' E 135°11'0 0.0
2016-Jun-22 19:29N 34°41' E 135°11'0 0.0
2016-Jun-22 18:17N 34°41' E 135°11'0 0.0
2016-Jun-22 17:29N 34°41' E 135°11'0 0.0
2016-Jun-22 16:29N 34°41' E 135°11'0 0.0
2016-Jun-22 15:23N 34°41' E 135°11'0 0.0
2016-Jun-22 14:17N 34°41' E 135°11'0 0.0
2016-Jun-22 13:29N 34°41' E 135°11'0 0.0
2016-Jun-22 12:30N 34°41' E 135°11'7 7.7
2016-Jun-22 11:34N 34°35' E 135°06'2 1.7
2016-Jun-22 10:33N 34°37' E 135°06'6 5.2
2016-Jun-22 09:28N 34°41' E 135°11'5 5.5
2016-Jun-22 08:33N 34°37' E 135°07'5 5.0
2016-Jun-22 07:32N 34°41' E 135°11'0 0.0
2016-Jun-22 06:32N 34°41' E 135°11'0 0.0
2016-Jun-22 05:32N 34°41' E 135°11'2 2.1
2016-Jun-22 04:33N 34°39' E 135°11'2 2.0
2016-Jun-22 03:34N 34°37' E 135°13'4 3.3
2016-Jun-22 02:28N 34°41' E 135°11'0 0.0
2016-Jun-22 01:28N 34°41' E 135°11'0 0.0
2016-Jun-22 00:28N 34°41' E 135°11'0 0.0
2016-Jun-21 23:28N 34°41' E 135°11'0 0.0
2016-Jun-21 22:22N 34°41' E 135°11'0 0.0
2016-Jun-21 21:28N 34°41' E 135°11'0 0.0
2016-Jun-21 20:28N 34°41' E 135°11'0 0.0
2016-Jun-21 19:28N 34°41' E 135°11'0 0.0
2016-Jun-21 18:16N 34°41' E 135°11'0 0.0
2016-Jun-21 17:28N 34°41' E 135°11'0 0.0
2016-Jun-21 16:28N 34°41' E 135°11'0 0.0
2016-Jun-21 15:28N 34°41' E 135°11'0 0.0
2016-Jun-21 14:28N 34°41' E 135°11'0 0.0
2016-Jun-21 13:28N 34°41' E 135°11'0 0.0
2016-Jun-21 12:28N 34°41' E 135°11'6 6.8
2016-Jun-21 11:33N 34°36' E 135°06'1 0.6
2016-Jun-21 10:33N 34°37' E 135°06'6 5.9
2016-Jun-21 09:31N 34°41' E 135°11'5 5.1
2016-Jun-21 08:33N 34°37' E 135°07'5 4.4
2016-Jun-21 07:27N 34°41' E 135°11'2 0.7
2016-Jun-21 04:33N 34°39' E 135°11'2 2.2
2016-Jun-21 03:33N 34°37' E 135°13'4 3.8
2016-Jun-21 02:32N 34°41' E 135°11'0 0.0
2016-Jun-21 01:32N 34°41' E 135°11'0 0.0
2016-Jun-21 00:26N 34°41' E 135°11'0 0.0
2016-Jun-20 23:32N 34°41' E 135°11'0 0.0
2016-Jun-20 22:14N 34°41' E 135°11'0 0.0
2016-Jun-20 21:32N 34°41' E 135°11'0 0.0
2016-Jun-20 20:32N 34°41' E 135°11'0 0.0
2016-Jun-20 19:32N 34°41' E 135°11'0 0.0
2016-Jun-20 18:32N 34°41' E 135°11'0 0.0
2016-Jun-20 17:32N 34°41' E 135°11'0 0.0
2016-Jun-20 16:26N 34°41' E 135°11'0 0.0
2016-Jun-20 15:32N 34°41' E 135°11'0 0.0
2016-Jun-20 14:26N 34°41' E 135°11'0 0.0
2016-Jun-20 13:32N 34°41' E 135°11'0 0.0
2016-Jun-20 12:27N 34°41' E 135°11'8 8.4
2016-Jun-20 11:33N 34°35' E 135°05'2 1.9
2016-Jun-20 10:33N 34°37' E 135°07'6 4.8
2016-Jun-20 09:24N 34°41' E 135°11'5 5.9
2016-Jun-20 08:34N 34°37' E 135°07'5 4.8
2016-Jun-20 07:32N 34°41' E 135°11'0 0.0
2016-Jun-20 06:14N 34°41' E 135°11'0 0.0
2016-Jun-20 05:26N 34°41' E 135°11'2 2.5
2016-Jun-20 04:33N 34°39' E 135°11'2 1.9
2016-Jun-20 03:34N 34°37' E 135°13'4 2.9
2016-Jun-20 02:18N 34°41' E 135°11'0 0.0
2016-Jun-20 01:30N 34°41' E 135°11'0 0.0
2016-Jun-20 00:30N 34°41' E 135°11'0 0.0
2016-Jun-19 23:30N 34°41' E 135°11'0 0.0
2016-Jun-19 22:30N 34°41' E 135°11'0 0.0
2016-Jun-19 21:30N 34°41' E 135°11'0 0.0
2016-Jun-19 20:30N 34°41' E 135°11'0 0.0
2016-Jun-19 19:30N 34°41' E 135°11'0 0.0
2016-Jun-19 18:30N 34°41' E 135°11'0 0.0
2016-Jun-19 17:30N 34°41' E 135°11'0 0.0
2016-Jun-19 16:30N 34°41' E 135°11'0 0.0
2016-Jun-19 15:30N 34°41' E 135°11'0 0.0
2016-Jun-19 14:30N 34°41' E 135°11'0 0.0
2016-Jun-19 13:30N 34°41' E 135°11'0 0.0
2016-Jun-19 12:30N 34°41' E 135°11'6 6.8
2016-Jun-19 11:33N 34°36' E 135°07'1 1.1
2016-Jun-19 10:34N 34°37' E 135°06'6 4.7
2016-Jun-19 09:17N 34°41' E 135°11'1 2.0
2016-Jun-19 08:33N 34°39' E 135°11'2 2.3
2016-Jun-19 07:33N 34°37' E 135°13'4 3.0
2016-Jun-19 06:20N 34°41' E 135°11'2 1.1
2016-Jun-19 04:33N 34°39' E 135°11'  
Track history (hours):
 
Tides and Currents Weather Stations Pressure Air Temp Water Temp Dewpoint Dewpoint Depression Visibility Wind Speed Wind Dir Waves Ship Positions

Luminous Kobe-2

Last reported at 2016-Jun-29 04:33 UTC. Time now 2016-Jun-29 05:38 UTC.
Position N 34°38' E 135°11'.

Length 105 m; draft 4.5 m.

Type: Passenger vessel. MMSI: 431000469.

Date/timePositionNaut miles runAvg speedWind from/ knotsBaromVisibWave heightAir tempDewpointWater temp
2016-Jun-29 04:33N 34°38' E 135°11'2 2.1
2016-Jun-29 03:33N 34°38' E 135°13'4 3.3
2016-Jun-29 02:28N 34°41' E 135°11'0 0.0
2016-Jun-29 01:22N 34°41' E 135°11'0 0.0
2016-Jun-29 00:22N 34°41' E 135°11'0 0.0
2016-Jun-28 23:22N 34°41' E 135°11'0 0.0
2016-Jun-28 22:28N 34°41' E 135°11'0 0.0
2016-Jun-28 21:28N 34°41' E 135°11'0 0.0
2016-Jun-28 20:28N 34°41' E 135°11'0 0.0
2016-Jun-28 19:28N 34°41' E 135°11'0 0.0
2016-Jun-28 18:28N 34°41' E 135°11'0 0.0
2016-Jun-28 17:28N 34°41' E 135°11'0 0.0
2016-Jun-28 16:28N 34°41' E 135°11'0 0.0
2016-Jun-28 15:28N 34°41' E 135°11'0 0.0
2016-Jun-28 14:28N 34°41' E 135°11'0 0.0
2016-Jun-28 13:28N 34°41' E 135°11'0 0.0
2016-Jun-28 12:28N 34°41' E 135°11'6 7.0
2016-Jun-28 11:33N 34°36' E 135°07'1 0.9
2016-Jun-28 10:34N 34°37' E 135°07'6 5.7
2016-Jun-28 09:33N 34°41' E 135°11'5 4.7
2016-Jun-28 08:33N 34°37' E 135°08'5 4.3
2016-Jun-28 07:28N 34°41' E 135°11'0 0.0
2016-Jun-28 06:28N 34°41' E 135°11'3 1.4
2016-Jun-28 04:33N 34°38' E 135°11'2 2.1
2016-Jun-28 03:33N 34°38' E 135°13'4 3.3
2016-Jun-28 02:29N 34°41' E 135°11'0 0.0
2016-Jun-28 01:29N 34°41' E 135°11'0 0.0
2016-Jun-28 00:23N 34°41' E 135°11'0 0.0
2016-Jun-27 23:23N 34°41' E 135°11'0 0.0
2016-Jun-27 22:29N 34°41' E 135°11'0 0.0
2016-Jun-27 21:23N 34°41' E 135°11'0 0.0
2016-Jun-27 20:29N 34°41' E 135°11'0 0.0
2016-Jun-27 19:29N 34°41' E 135°11'0 0.0
2016-Jun-27 18:29N 34°41' E 135°11'0 0.0
2016-Jun-27 17:29N 34°41' E 135°11'0 0.0
2016-Jun-27 16:29N 34°41' E 135°11'0 0.0
2016-Jun-27 15:23N 34°41' E 135°11'0 0.0
2016-Jun-27 14:29N 34°41' E 135°11'0 0.0
2016-Jun-27 13:29N 34°41' E 135°11'0 0.0
2016-Jun-27 12:29N 34°41' E 135°11'7 7.3
2016-Jun-27 11:33N 34°35' E 135°07'1 1.4
2016-Jun-27 10:33N 34°37' E 135°07'5 5.1
2016-Jun-27 09:29N 34°41' E 135°11'5 5.1
2016-Jun-27 08:33N 34°37' E 135°08'5 4.0
2016-Jun-27 07:23N 34°41' E 135°11'0 0.0
2016-Jun-27 06:29N 34°41' E 135°11'2 1.1
2016-Jun-27 04:33N 34°39' E 135°11'2 1.8
2016-Jun-27 03:33N 34°38' E 135°13'4 3.5
2016-Jun-27 02:33N 34°41' E 135°11'0 0.0
2016-Jun-27 01:33N 34°41' E 135°11'0 0.0
2016-Jun-27 00:33N 34°41' E 135°11'0 0.0
2016-Jun-26 23:33N 34°41' E 135°11'0 0.0
2016-Jun-26 22:33N 34°41' E 135°11'0 0.0
2016-Jun-26 21:33N 34°41' E 135°11'0 0.0
2016-Jun-26 20:21N 34°41' E 135°11'0 0.0
2016-Jun-26 19:33N 34°41' E 135°11'0 0.0
2016-Jun-26 18:27N 34°41' E 135°11'0 0.0
2016-Jun-26 17:33N 34°41' E 135°11'0 0.0
2016-Jun-26 16:33N 34°41' E 135°11'0 0.0
2016-Jun-26 15:33N 34°41' E 135°11'0 0.0
2016-Jun-26 14:33N 34°41' E 135°11'0 0.0
2016-Jun-26 13:33N 34°41' E 135°11'0 0.0
2016-Jun-26 12:33N 34°41' E 135°11'6 6.2
2016-Jun-26 11:33N 34°36' E 135°07'1 0.9
2016-Jun-26 10:33N 34°36' E 135°06'6 6.0
2016-Jun-26 09:31N 34°41' E 135°11'2 1.8
2016-Jun-26 08:33N 34°39' E 135°11'2 2.2
2016-Jun-26 07:33N 34°37' E 135°13'4 3.1
2016-Jun-26 06:22N 34°41' E 135°11'0 0.0
2016-Jun-26 05:28N 34°41' E 135°11'2 2.5
2016-Jun-26 04:33N 34°39' E 135°11'2 1.8
2016-Jun-26 03:33N 34°37' E 135°13'4 3.5
2016-Jun-26 02:31N 34°41' E 135°11'0 0.0
2016-Jun-26 01:31N 34°41' E 135°11'0 0.0
2016-Jun-26 00:31N 34°41' E 135°11'0 0.0
2016-Jun-25 23:31N 34°41' E 135°11'0 0.0
2016-Jun-25 22:31N 34°41' E 135°11'0 0.0
2016-Jun-25 21:25N 34°41' E 135°11'0 0.0
2016-Jun-25 20:31N 34°41' E 135°11'0 0.0
2016-Jun-25 19:31N 34°41' E 135°11'0 0.0
2016-Jun-25 18:31N 34°41' E 135°11'0 0.0
2016-Jun-25 17:31N 34°41' E 135°11'0 0.0
2016-Jun-25 16:31N 34°41' E 135°11'0 0.0
2016-Jun-25 15:31N 34°41' E 135°11'0 0.0
2016-Jun-25 14:31N 34°41' E 135°11'0 0.0
2016-Jun-25 13:31N 34°41' E 135°11'0 0.0
2016-Jun-25 12:31N 34°41' E 135°11'7 7.4
2016-Jun-25 11:33N 34°35' E 135°06'2 2.0
2016-Jun-25 10:33N 34°37' E 135°07'5 4.3
2016-Jun-25 09:21N 34°41' E 135°11'7 8.6
2016-Jun-25 08:33N 34°35' E 135°07'1 1.4
2016-Jun-25 07:33N 34°37' E 135°07'6 5.6
2016-Jun-25 06:33N 34°41' E 135°11'0 0.0
2016-Jun-25 05:33N 34°41' E 135°11'2 2.2
2016-Jun-25 04:33N 34°39' E 135°11'2 2.0
2016-Jun-25 03:33N 34°37' E 135°13'4 3.6
2016-Jun-25 02:31N 34°41' E 135°11'0 0.0
2016-Jun-25 01:31N 34°41' E 135°11'0 0.0
2016-Jun-25 00:31N 34°41' E 135°11'0 0.0
2016-Jun-24 23:31N 34°41' E 135°11'0 0.0
2016-Jun-24 22:31N 34°41' E 135°11'0 0.0
2016-Jun-24 21:25N 34°41' E 135°11'0 0.0
2016-Jun-24 20:31N 34°41' E 135°11'0 0.0
2016-Jun-24 19:31N 34°41' E 135°11'0 0.0
2016-Jun-24 18:31N 34°41' E 135°11'0 0.0
2016-Jun-24 17:31N 34°41' E 135°11'0 0.0
2016-Jun-24 16:31N 34°41' E 135°11'0 0.0
2016-Jun-24 15:31N 34°41' E 135°11'0 0.0
2016-Jun-24 14:31N 34°41' E 135°11'0 0.0
2016-Jun-24 13:31N 34°41' E 135°11'0 0.0
2016-Jun-24 12:33N 34°41' E 135°11'9 8.6
2016-Jun-24 11:33N 34°35' E 135°03'6 6.2
2016-Jun-24 10:33N 34°38' E 135°10'3 2.8
2016-Jun-24 09:31N 34°41' E 135°11'5 4.8
2016-Jun-24 08:34N 34°37' E 135°08'5 3.6
2016-Jun-24 07:18N 34°41' E 135°11'2 0.6
2016-Jun-24 04:33N 34°39' E 135°11'2 2.2
2016-Jun-24 03:33N 34°37' E 135°13'4 3.0
2016-Jun-24 02:20N 34°41' E 135°11'0 0.0
2016-Jun-24 01:32N 34°41' E 135°11'0 0.0
2016-Jun-24 00:32N 34°41' E 135°11'0 0.0
2016-Jun-23 23:32N 34°41' E 135°11'0 0.0
2016-Jun-23 22:26N 34°41' E 135°11'0 0.0
2016-Jun-23 21:32N 34°41' E 135°11'0 0.0
2016-Jun-23 20:26N 34°41' E 135°11'0 0.0
2016-Jun-23 19:32N 34°41' E 135°11'0 0.0
2016-Jun-23 18:32N 34°41' E 135°11'0 0.0
2016-Jun-23 17:26N 34°41' E 135°11'0 0.0
2016-Jun-23 16:32N 34°41' E 135°11'0 0.0
2016-Jun-23 15:32N 34°41' E 135°11'0 0.0
2016-Jun-23 14:26N 34°41' E 135°11'0 0.0
2016-Jun-23 13:32N 34°41' E 135°11'0 0.0
2016-Jun-23 12:28N 34°41' E 135°11'7 7.6
2016-Jun-23 11:33N 34°35' E 135°06'2 1.5
2016-Jun-23 10:34N 34°37' E 135°06'6 5.3
2016-Jun-23 09:26N 34°41' E 135°11'5 5.2
2016-Jun-23 08:33N 34°37' E 135°08'5 4.4
2016-Jun-23 07:31N 34°41' E 135°11'0 0.0
2016-Jun-23 05:31N 34°41' E 135°11'2 2.6
2016-Jun-23 04:33N 34°38' E 135°11'2 2.1
2016-Jun-23 03:33N 34°37' E 135°13'4 3.5
2016-Jun-23 02:29N 34°41' E 135°11'0 0.0
2016-Jun-23 01:29N 34°41' E 135°11'0 0.0
2016-Jun-23 00:23N 34°41' E 135°11'0 0.0
2016-Jun-22 23:29N 34°41' E 135°11'0 0.0
2016-Jun-22 22:17N 34°41' E 135°11'0 0.0
2016-Jun-22 21:29N 34°41' E 135°11'0 0.0
2016-Jun-22 20:29N 34°41' E 135°11'0 0.0
2016-Jun-22 19:29N 34°41' E 135°11'0 0.0
2016-Jun-22 18:17N 34°41' E 135°11'0 0.0
2016-Jun-22 17:29N 34°41' E 135°11'0 0.0
2016-Jun-22 16:29N 34°41' E 135°11'0 0.0
2016-Jun-22 15:23N 34°41' E 135°11'0 0.0
2016-Jun-22 14:17N 34°41' E 135°11'0 0.0
2016-Jun-22 13:29N 34°41' E 135°11'0 0.0
2016-Jun-22 12:30N 34°41' E 135°11'7 7.7
2016-Jun-22 11:34N 34°35' E 135°06'2 1.7
2016-Jun-22 10:33N 34°37' E 135°06'6 5.2
2016-Jun-22 09:28N 34°41' E 135°11'5 5.5
2016-Jun-22 08:33N 34°37' E 135°07'5 5.0
2016-Jun-22 07:32N 34°41' E 135°11'0 0.0
2016-Jun-22 06:32N 34°41' E 135°11'0 0.0
2016-Jun-22 05:32N 34°41' E 135°11'2 2.1
2016-Jun-22 04:33N 34°39' E 135°11'2 2.0
2016-Jun-22 03:34N 34°37' E 135°13'4 3.3
2016-Jun-22 02:28N 34°41' E 135°11'0 0.0
2016-Jun-22 01:28N 34°41' E 135°11'0 0.0
2016-Jun-22 00:28N 34°41' E 135°11'0 0.0
2016-Jun-21 23:28N 34°41' E 135°11'0 0.0
2016-Jun-21 22:22N 34°41' E 135°11'0 0.0
2016-Jun-21 21:28N 34°41' E 135°11'0 0.0
2016-Jun-21 20:28N 34°41' E 135°11'0 0.0
2016-Jun-21 19:28N 34°41' E 135°11'0 0.0
2016-Jun-21 18:16N 34°41' E 135°11'0 0.0
2016-Jun-21 17:28N 34°41' E 135°11'0 0.0
2016-Jun-21 16:28N 34°41' E 135°11'0 0.0
2016-Jun-21 15:28N 34°41' E 135°11'0 0.0
2016-Jun-21 14:28N 34°41' E 135°11'0 0.0
2016-Jun-21 13:28N 34°41' E 135°11'0 0.0
2016-Jun-21 12:28N 34°41' E 135°11'6 6.8
2016-Jun-21 11:33N 34°36' E 135°06'1 0.6
2016-Jun-21 10:33N 34°37' E 135°06'6 5.9
2016-Jun-21 09:31N 34°41' E 135°11'5 5.1
2016-Jun-21 08:33N 34°37' E 135°07'5 4.4
2016-Jun-21 07:27N 34°41' E 135°11'2 0.7
2016-Jun-21 04:33N 34°39' E 135°11'2 2.2
2016-Jun-21 03:33N 34°37' E 135°13'4 3.8
2016-Jun-21 02:32N 34°41' E 135°11'0 0.0
2016-Jun-21 01:32N 34°41' E 135°11'0 0.0
2016-Jun-21 00:26N 34°41' E 135°11'0 0.0
2016-Jun-20 23:32N 34°41' E 135°11'0 0.0
2016-Jun-20 22:14N 34°41' E 135°11'0 0.0
2016-Jun-20 21:32N 34°41' E 135°11'0 0.0
2016-Jun-20 20:32N 34°41' E 135°11'0 0.0
2016-Jun-20 19:32N 34°41' E 135°11'0 0.0
2016-Jun-20 18:32N 34°41' E 135°11'0 0.0
2016-Jun-20 17:32N 34°41' E 135°11'0 0.0
2016-Jun-20 16:26N 34°41' E 135°11'0 0.0
2016-Jun-20 15:32N 34°41' E 135°11'0 0.0
2016-Jun-20 14:26N 34°41' E 135°11'0 0.0
2016-Jun-20 13:32N 34°41' E 135°11'0 0.0
2016-Jun-20 12:27N 34°41' E 135°11'8 8.4
2016-Jun-20 11:33N 34°35' E 135°05'2 1.9
2016-Jun-20 10:33N 34°37' E 135°07'6 4.8
2016-Jun-20 09:24N 34°41' E 135°11'5 5.9
2016-Jun-20 08:34N 34°37' E 135°07'5 4.8
2016-Jun-20 07:32N 34°41' E 135°11'0 0.0
2016-Jun-20 06:14N 34°41' E 135°11'0 0.0
2016-Jun-20 05:26N 34°41' E 135°11'2 2.5
2016-Jun-20 04:33N 34°39' E 135°11'2 1.9
2016-Jun-20 03:34N 34°37' E 135°13'4 2.9
2016-Jun-20 02:18N 34°41' E 135°11'0 0.0
2016-Jun-20 01:30N 34°41' E 135°11'0 0.0
2016-Jun-20 00:30N 34°41' E 135°11'0 0.0
2016-Jun-19 23:30N 34°41' E 135°11'0 0.0
2016-Jun-19 22:30N 34°41' E 135°11'0 0.0
2016-Jun-19 21:30N 34°41' E 135°11'0 0.0
2016-Jun-19 20:30N 34°41' E 135°11'0 0.0
2016-Jun-19 19:30N 34°41' E 135°11'0 0.0
2016-Jun-19 18:30N 34°41' E 135°11'0 0.0
2016-Jun-19 17:30N 34°41' E 135°11'0 0.0
2016-Jun-19 16:30N 34°41' E 135°11'0 0.0
2016-Jun-19 15:30N 34°41' E 135°11'0 0.0
2016-Jun-19 14:30N 34°41' E 135°11'0 0.0
2016-Jun-19 13:30N 34°41' E 135°11'0 0.0
2016-Jun-19 12:30N 34°41' E 135°11'6 6.8
2016-Jun-19 11:33N 34°36' E 135°07'1 1.1
2016-Jun-19 10:34N 34°37' E 135°06'6 4.7
2016-Jun-19 09:17N 34°41' E 135°11'1 2.0
2016-Jun-19 08:33N 34°39' E 135°11'2 2.3
2016-Jun-19 07:33N 34°37' E 135°13'4 3.0
2016-Jun-19 06:20N 34°41' E 135°11'2 1.1
2016-Jun-19 04:33N 34°39' E 135°11'  

Dump ship's entire track history